Time;durP1;ratioP1;P1;durP2;ratioP2;P2;SDS_P1;SDS_P2;PMS_P1;PMS_P2;Temp;Humidity;BMP_temperature;BMP_pressure;BME280_temperature;BME280_humidity;BME280_pressure;Samples;Min_cycle;Max_cycle;Signal;HPM_P1;HPM_P2
2022/04/21 00:00:21;;;;;;;3.85;2.40;;;11.60;84.00;;;;;;5055725;28;20033;-87
2022/04/21 00:02:47;;;;;;;5.75;2.92;;;11.50;84.10;;;;;;5071499;28;20032;-87
2022/04/21 00:05:14;;;;;;;4.13;2.50;;;11.50;84.10;;;;;;5072448;28;20051;-85
2022/04/21 00:07:39;;;;;;;5.20;3.20;;;11.50;84.10;;;;;;5070513;28;20043;-87
2022/04/21 00:10:07;;;;;;;4.25;2.80;;;11.50;84.10;;;;;;5066159;28;20045;-87
2022/04/21 00:12:36;;;;;;;3.88;2.40;;;11.40;84.20;;;;;;5034061;28;20033;-89
2022/04/21 00:15:04;;;;;;;4.03;2.20;;;11.40;84.50;;;;;;5054419;28;20490;-87
2022/04/21 00:17:30;;;;;;;4.18;2.33;;;11.40;84.50;;;;;;5072336;28;20082;-86
2022/04/21 00:20:01;;;;;;;4.70;2.83;;;11.40;84.70;;;;;;5074796;28;20059;-85
2022/04/21 00:25:12;;;;;;;6.78;2.58;;;11.30;84.90;;;;;;5073400;28;20516;-88
2022/04/21 00:27:41;;;;;;;3.70;1.88;;;11.30;85.40;;;;;;5073429;28;20086;-86
2022/04/21 00:30:07;;;;;;;3.85;2.50;;;11.20;85.30;;;;;;5058372;28;20070;-85
2022/04/21 00:32:34;;;;;;;4.30;2.47;;;11.20;85.50;;;;;;5079277;28;20033;-86
2022/04/21 00:35:01;;;;;;;3.90;2.60;;;11.20;85.60;;;;;;5061085;28;20042;-85
2022/04/21 00:37:27;;;;;;;3.55;2.38;;;11.10;85.50;;;;;;5053950;28;20033;-87
2022/04/21 00:39:52;;;;;;;5.13;3.10;;;11.10;85.70;;;;;;5052263;28;20093;-87
2022/04/21 00:42:18;;;;;;;5.25;2.50;;;11.10;85.70;;;;;;5057134;28;20079;-87
2022/04/21 00:44:44;;;;;;;4.03;2.78;;;11.00;85.90;;;;;;5048984;28;20029;-87
2022/04/21 00:47:10;;;;;;;6.68;2.60;;;11.00;86.10;;;;;;5057081;28;20032;-87
2022/04/21 00:49:37;;;;;;;6.20;2.83;;;11.00;86.40;;;;;;5056502;28;20059;-87
2022/04/21 00:52:03;;;;;;;5.22;2.53;;;10.90;86.50;;;;;;5055760;28;20033;-88
2022/04/21 00:54:33;;;;;;;6.72;3.40;;;11.00;86.80;;;;;;5074281;28;20056;-87
2022/04/21 00:57:03;;;;;;;5.32;3.05;;;10.90;87.20;;;;;;5055187;28;20028;-87
2022/04/21 00:59:30;;;;;;;3.38;2.80;;;10.90;87.20;;;;;;5055031;28;20044;-86
2022/04/21 01:04:41;;;;;;;3.90;2.80;;;10.90;87.90;;;;;;5073655;28;20123;-86
2022/04/21 01:07:08;;;;;;;4.40;2.80;;;10.80;87.90;;;;;;5061378;28;20532;-86
2022/04/21 01:09:40;;;;;;;4.07;2.92;;;10.80;88.30;;;;;;5070568;28;20040;-88
2022/04/21 01:12:11;;;;;;;5.05;2.78;;;10.80;88.60;;;;;;5054022;28;20033;-88
2022/04/21 01:14:37;;;;;;;5.45;2.78;;;10.70;88.70;;;;;;5051368;28;20051;-85
2022/04/21 01:17:04;;;;;;;4.78;3.03;;;10.70;88.80;;;;;;5073803;28;20035;-87
2022/04/21 01:19:30;;;;;;;4.28;2.90;;;10.70;89.00;;;;;;5055483;28;20071;-89
2022/04/21 01:21:55;;;;;;;5.15;3.13;;;10.70;89.30;;;;;;5054770;28;20037;-87
2022/04/21 01:24:21;;;;;;;5.72;3.20;;;10.60;89.50;;;;;;5067258;28;20040;-87
2022/04/21 01:26:48;;;;;;;6.13;3.10;;;10.60;89.50;;;;;;5066988;28;20040;-85
2022/04/21 01:29:14;;;;;;;5.18;3.10;;;10.60;89.70;;;;;;5074670;28;20115;-87
2022/04/21 01:31:39;;;;;;;4.88;3.03;;;10.60;90.00;;;;;;5057252;28;20060;-88
2022/04/21 01:34:05;;;;;;;6.63;4.10;;;10.60;90.10;;;;;;5058106;28;20072;-89
2022/04/21 01:36:31;;;;;;;7.22;3.28;;;10.50;90.60;;;;;;5066142;28;20060;-88
2022/04/21 01:41:41;;;;;;;5.65;3.22;;;10.50;90.70;;;;;;5074723;28;20548;-88
2022/04/21 01:44:06;;;;;;;4.45;2.72;;;10.40;90.70;;;;;;5085958;28;20035;-88
2022/04/21 01:46:32;;;;;;;5.38;2.90;;;10.50;90.70;;;;;;5066377;28;20024;-88
2022/04/21 01:48:58;;;;;;;5.22;3.00;;;10.40;90.80;;;;;;5053638;28;20070;-88
2022/04/21 01:51:24;;;;;;;5.15;3.33;;;10.40;90.90;;;;;;5072989;28;20123;-88
2022/04/21 01:53:49;;;;;;;6.75;3.78;;;10.40;91.10;;;;;;5070717;28;20040;-85
2022/04/21 01:56:16;;;;;;;5.30;3.67;;;10.40;91.20;;;;;;5052471;28;20039;-90
2022/04/21 01:58:42;;;;;;;5.65;3.60;;;10.40;91.40;;;;;;5053585;28;20041;-87
2022/04/21 02:01:08;;;;;;;5.20;3.58;;;10.40;91.50;;;;;;5055591;28;20615;-89
2022/04/21 02:03:37;;;;;;;5.05;3.47;;;10.30;91.50;;;;;;5055273;28;20110;-89
2022/04/21 02:06:02;;;;;;;6.28;3.47;;;10.30;91.70;;;;;;5038213;28;20099;-87
2022/04/21 02:08:28;;;;;;;7.03;4.20;;;10.30;91.80;;;;;;5056450;28;20448;-87
2022/04/21 02:10:54;;;;;;;6.18;4.15;;;10.30;91.90;;;;;;5056538;28;20048;-87
2022/04/21 02:13:20;;;;;;;6.35;3.88;;;10.20;92.00;;;;;;5054488;28;20471;-86
2022/04/21 02:15:45;;;;;;;8.52;5.07;;;10.20;92.10;;;;;;5055031;28;20041;-88
2022/04/21 02:18:11;;;;;;;8.52;4.30;;;10.20;92.20;;;;;;5054802;28;20486;-87
2022/04/21 02:20:37;;;;;;;7.05;4.20;;;10.10;92.30;;;;;;5054709;28;20049;-87
2022/04/21 02:23:03;;;;;;;6.35;3.60;;;10.10;92.40;;;;;;5056592;28;20106;-87
2022/04/21 02:25:28;;;;;;;6.55;3.78;;;10.10;92.70;;;;;;5054832;28;20495;-88
2022/04/21 02:27:54;;;;;;;5.05;3.33;;;10.10;92.50;;;;;;5055054;28;20043;-88
2022/04/21 02:30:20;;;;;;;6.35;3.63;;;10.00;92.60;;;;;;5054502;28;20099;-87
2022/04/21 02:32:46;;;;;;;6.03;3.60;;;10.00;92.70;;;;;;5053304;28;20033;-89
2022/04/21 02:35:13;;;;;;;4.68;3.15;;;10.00;92.80;;;;;;5055287;28;20043;-88
2022/04/21 02:37:41;;;;;;;6.03;3.03;;;9.90;92.80;;;;;;5053900;28;20502;-85
2022/04/21 02:40:09;;;;;;;4.95;3.10;;;10.00;92.90;;;;;;5054760;28;20064;-86
2022/04/21 02:42:38;;;;;;;5.57;3.13;;;9.90;92.90;;;;;;5053052;28;20079;-85
2022/04/21 02:45:09;;;;;;;5.80;3.50;;;9.90;93.10;;;;;;5055091;28;20470;-85
2022/04/21 02:47:36;;;;;;;4.90;3.17;;;9.80;93.10;;;;;;5054688;28;20061;-87
2022/04/21 02:50:02;;;;;;;5.95;3.40;;;9.80;93.30;;;;;;5055250;28;20036;-87
2022/04/21 02:52:28;;;;;;;5.35;3.40;;;9.80;93.40;;;;;;5053685;28;20087;-89
2022/04/21 02:57:38;;;;;;;5.38;3.40;;;9.80;93.50;;;;;;5094730;28;20047;-89
2022/04/21 03:00:06;;;;;;;4.88;3.17;;;9.70;93.50;;;;;;5076341;28;20040;-87
2022/04/21 03:02:31;;;;;;;5.65;3.38;;;9.70;93.80;;;;;;5076597;28;20119;-87
2022/04/21 03:04:57;;;;;;;5.53;3.47;;;9.70;93.90;;;;;;5076781;28;20450;-87
2022/04/21 03:07:23;;;;;;;4.78;3.25;;;9.70;93.90;;;;;;5095063;28;20032;-85
2022/04/21 03:09:49;;;;;;;6.00;3.58;;;9.70;94.00;;;;;;5077204;28;20036;-87
2022/04/21 03:12:15;;;;;;;6.40;3.47;;;9.70;94.00;;;;;;5097987;28;20040;-85
2022/04/21 03:14:42;;;;;;;5.68;3.85;;;9.60;94.10;;;;;;5099530;28;20032;-86
2022/04/21 03:17:09;;;;;;;4.65;3.30;;;9.60;94.10;;;;;;5081861;28;20034;-87
2022/04/21 03:19:37;;;;;;;6.55;3.25;;;9.60;94.20;;;;;;5100695;28;20042;-87
2022/04/21 03:24:48;;;;;;;4.60;3.05;;;9.60;94.30;;;;;;5097906;28;20047;-88
2022/04/21 03:27:14;;;;;;;5.40;3.75;;;9.60;94.40;;;;;;5076084;28;20020;-86
2022/04/21 03:29:40;;;;;;;4.57;2.88;;;9.50;94.40;;;;;;5076505;28;20497;-86
2022/04/21 03:32:13;;;;;;;3.72;2.42;;;9.50;94.40;;;;;;5076196;28;20020;-86
2022/04/21 03:34:43;;;;;;;5.43;3.17;;;9.50;94.50;;;;;;5076226;28;20047;-87
2022/04/21 03:37:15;;;;;;;5.32;3.28;;;9.50;94.50;;;;;;5076307;28;20037;-88
2022/04/21 03:39:42;;;;;;;5.10;3.35;;;9.50;94.60;;;;;;5076289;28;20040;-84
2022/04/21 03:42:18;;;;;;;5.07;3.25;;;9.50;94.90;;;;;;5076716;28;20028;-87
2022/04/21 03:44:44;;;;;;;4.68;2.65;;;9.50;94.70;;;;;;5094292;28;20486;-87
2022/04/21 03:47:09;;;;;;;4.63;2.95;;;9.50;94.80;;;;;;5076237;28;20039;-87
2022/04/21 03:49:35;;;;;;;4.57;2.90;;;9.40;94.90;;;;;;5076243;28;20135;-87
2022/04/21 03:52:01;;;;;;;4.35;2.85;;;9.40;94.90;;;;;;5076415;28;20028;-86
2022/04/21 03:54:27;;;;;;;5.50;2.80;;;9.30;95.00;;;;;;5094117;28;20071;-86
2022/04/21 03:56:54;;;;;;;3.95;2.67;;;9.30;95.00;;;;;;5076837;28;20078;-85
2022/04/21 03:59:23;;;;;;;4.53;2.72;;;9.30;95.10;;;;;;5097890;28;20040;-86
2022/04/21 04:01:51;;;;;;;4.07;2.55;;;9.30;95.10;;;;;;5100585;28;20032;-87
2022/04/21 04:04:17;;;;;;;3.58;2.53;;;9.20;95.20;;;;;;5096546;28;20036;-87
2022/04/21 04:12:11;;;;;;;4.55;2.55;;;9.20;95.40;;;;;;5094515;28;20094;-86
2022/04/21 04:14:38;;;;;;;4.15;2.53;;;9.10;95.50;;;;;;5075712;28;20028;-87
2022/04/21 04:17:08;;;;;;;3.80;2.60;;;9.10;95.60;;;;;;5097095;28;20094;-88
2022/04/21 04:19:35;;;;;;;3.60;2.40;;;9.10;95.80;;;;;;5097918;28;20048;-87
2022/04/21 04:22:04;;;;;;;4.68;2.72;;;9.00;95.80;;;;;;5079549;28;20028;-88
2022/04/21 04:24:30;;;;;;;4.15;2.60;;;9.00;95.90;;;;;;5097374;28;20039;-87
2022/04/21 04:26:56;;;;;;;4.63;2.80;;;9.00;96.30;;;;;;5098370;28;20111;-86
2022/04/21 04:29:22;;;;;;;4.53;3.03;;;9.00;96.10;;;;;;5080973;28;20393;-86
2022/04/21 04:31:54;;;;;;;4.43;3.10;;;8.90;96.10;;;;;;5081129;28;20031;-87
2022/04/21 04:34:22;;;;;;;4.47;2.78;;;8.90;96.20;;;;;;5079161;28;20123;-89
2022/04/21 04:36:48;;;;;;;4.80;2.97;;;8.90;96.30;;;;;;5079153;28;20111;-89
2022/04/21 04:39:15;;;;;;;5.47;3.47;;;8.90;96.30;;;;;;5076754;28;20581;-90
2022/04/21 04:44:26;;;;;;;5.05;3.15;;;8.80;96.50;;;;;;5095771;28;20055;-88
2022/04/21 04:46:51;;;;;;;5.65;3.67;;;8.80;96.60;;;;;;5089522;28;20091;-87
2022/04/21 04:49:17;;;;;;;6.40;3.42;;;8.80;96.70;;;;;;5092326;28;20063;-86
2022/04/21 04:51:42;;;;;;;5.18;3.28;;;8.80;96.80;;;;;;5075678;28;20039;-86
2022/04/21 04:54:10;;;;;;;4.93;3.03;;;8.90;97.00;;;;;;5092962;28;20051;-86
2022/04/21 04:56:37;;;;;;;4.82;3.00;;;8.90;97.00;;;;;;5074701;28;20032;-87
2022/04/21 04:59:07;;;;;;;4.50;3.00;;;8.80;97.10;;;;;;5091654;28;20036;-86
2022/04/21 05:01:41;;;;;;;5.72;3.40;;;8.90;97.20;;;;;;5091857;28;20032;-86
2022/04/21 05:04:18;;;;;;;5.47;3.60;;;8.80;97.20;;;;;;5074697;28;20055;-86
2022/04/21 05:06:46;;;;;;;4.00;3.05;;;8.80;97.30;;;;;;5091907;28;20043;-87
2022/04/21 05:09:13;;;;;;;5.78;3.47;;;8.80;97.40;;;;;;5058143;28;20033;-87
2022/04/21 05:11:41;;;;;;;4.07;2.65;;;8.80;97.40;;;;;;5057462;28;20040;-86
2022/04/21 05:14:08;;;;;;;3.55;2.65;;;8.80;97.50;;;;;;5055560;28;20086;-86
2022/04/21 05:16:39;;;;;;;5.10;3.15;;;8.80;97.60;;;;;;5076382;28;20055;-87
2022/04/21 05:19:07;;;;;;;4.05;2.90;;;8.80;97.70;;;;;;5075753;28;20025;-86
2022/04/21 05:21:34;;;;;;;4.95;2.83;;;8.90;97.70;;;;;;5076687;28;20112;-87
2022/04/21 05:24:00;;;;;;;5.18;2.90;;;8.90;97.70;;;;;;5058682;28;20025;-88
2022/04/21 05:26:27;;;;;;;4.63;3.50;;;8.90;97.70;;;;;;5076486;28;20033;-85
2022/04/21 05:28:58;;;;;;;6.28;3.10;;;8.90;97.90;;;;;;5045906;28;20068;-88
2022/04/21 05:31:26;;;;;;;3.88;2.75;;;8.90;97.90;;;;;;5054915;28;20029;-86
2022/04/21 05:33:55;;;;;;;6.30;3.78;;;9.00;97.90;;;;;;5055153;28;20083;-87
2022/04/21 05:36:22;;;;;;;5.40;3.30;;;9.00;97.90;;;;;;5055510;28;20029;-87
2022/04/21 05:38:51;;;;;;;5.40;3.05;;;9.00;97.90;;;;;;5056894;28;20082;-85
2022/04/21 05:41:19;;;;;;;4.45;3.05;;;9.00;97.90;;;;;;5055028;28;20348;-86
2022/04/21 05:43:46;;;;;;;7.97;3.60;;;9.00;98.00;;;;;;5055580;28;20044;-86
2022/04/21 05:46:13;;;;;;;4.70;3.30;;;9.10;98.10;;;;;;5068495;28;20083;-84
2022/04/21 05:48:40;;;;;;;6.30;3.47;;;9.10;98.00;;;;;;5059911;28;20167;-85
2022/04/21 05:51:09;;;;;;;5.50;3.40;;;9.20;98.10;;;;;;5056421;28;20029;-86
2022/04/21 05:53:37;;;;;;;4.75;2.75;;;9.20;98.00;;;;;;5062604;28;20117;-86
2022/04/21 05:56:08;;;;;;;4.32;3.10;;;9.20;98.00;;;;;;5096451;28;20054;-87
2022/04/21 05:58:36;;;;;;;3.92;2.63;;;9.30;98.10;;;;;;5058975;28;20043;-88
2022/04/21 06:01:07;;;;;;;5.20;3.33;;;9.30;98.10;;;;;;5059559;28;20417;-87
2022/04/21 06:03:35;;;;;;;5.30;3.15;;;9.40;98.30;;;;;;5058513;28;20646;-86
2022/04/21 06:06:01;;;;;;;4.80;3.08;;;9.40;98.00;;;;;;5059026;28;20585;-86
2022/04/21 06:08:27;;;;;;;4.60;3.10;;;9.50;98.30;;;;;;5076615;28;20036;-87
2022/04/21 06:10:52;;;;;;;4.70;3.20;;;9.50;98.00;;;;;;5058595;28;20032;-85
2022/04/21 06:13:18;;;;;;;5.07;3.00;;;9.60;98.00;;;;;;5061205;28;20029;-85
2022/04/21 06:15:44;;;;;;;5.18;3.03;;;9.60;98.00;;;;;;5067691;28;20119;-88
2022/04/21 06:18:10;;;;;;;4.40;3.20;;;9.70;98.10;;;;;;5075962;28;20024;-86
2022/04/21 06:20:36;;;;;;;5.15;3.15;;;9.80;98.10;;;;;;5080629;28;20045;-87
2022/04/21 06:23:02;;;;;;;3.75;2.83;;;9.80;98.10;;;;;;5077325;28;20008;-87
2022/04/21 06:25:27;;;;;;;5.05;3.13;;;9.90;98.10;;;;;;5112577;28;20032;-84
2022/04/21 06:27:53;;;;;;;3.92;2.70;;;9.90;98.20;;;;;;5073401;28;20038;-87
2022/04/21 06:30:19;;;;;;;5.20;3.22;;;10.00;98.20;;;;;;5072957;28;20024;-85
2022/04/21 06:32:48;;;;;;;4.30;3.00;;;10.10;98.20;;;;;;5080920;28;20021;-86
2022/04/21 06:35:13;;;;;;;4.65;3.10;;;10.20;98.20;;;;;;5089149;28;20086;-87
2022/04/21 06:37:39;;;;;;;4.93;3.33;;;10.20;98.10;;;;;;5081544;28;20032;-87
2022/04/21 06:40:06;;;;;;;4.03;2.70;;;10.20;98.00;;;;;;5083179;28;20033;-88
2022/04/21 06:42:31;;;;;;;4.93;3.30;;;10.30;97.80;;;;;;5095004;28;20032;-89
2022/04/21 06:48:02;;;;;;;3.90;2.58;;;10.40;97.80;;;;;;5097534;28;20039;-86
2022/04/21 06:50:30;;;;;;;4.45;3.25;;;10.40;97.70;;;;;;5094426;28;20112;-87
2022/04/21 06:52:56;;;;;;;4.57;2.97;;;10.50;97.70;;;;;;5095300;28;20036;-85
2022/04/21 06:55:22;;;;;;;3.53;2.40;;;10.50;97.70;;;;;;5089812;28;20056;-85
2022/04/21 06:57:48;;;;;;;4.80;2.90;;;10.60;97.60;;;;;;5077794;28;20011;-86
2022/04/21 07:00:14;;;;;;;5.30;2.97;;;10.60;97.60;;;;;;5082432;28;20048;-85
2022/04/21 07:02:41;;;;;;;5.05;3.25;;;10.60;97.60;;;;;;5087823;28;20042;-87
2022/04/21 07:05:10;;;;;;;5.45;3.20;;;10.70;97.60;;;;;;5073966;28;20051;-89
2022/04/21 07:07:37;;;;;;;4.65;3.00;;;10.70;97.60;;;;;;5088150;28;20033;-87
2022/04/21 07:10:04;;;;;;;4.03;3.10;;;10.80;97.60;;;;;;5073827;28;20028;-88
2022/04/21 07:12:31;;;;;;;4.35;2.78;;;10.80;97.50;;;;;;5085724;28;20057;-91
2022/04/21 07:14:57;;;;;;;5.07;3.20;;;10.90;97.40;;;;;;5067714;28;20059;-86
2022/04/21 07:17:24;;;;;;;4.05;2.70;;;10.90;97.40;;;;;;5060944;28;20044;-85
2022/04/21 07:19:50;;;;;;;5.07;2.97;;;11.00;97.30;;;;;;5060246;28;20041;-85
2022/04/21 07:22:15;;;;;;;4.80;3.00;;;11.00;97.10;;;;;;5084864;28;20043;-87
2022/04/21 07:24:41;;;;;;;4.55;3.28;;;11.10;96.90;;;;;;5062436;28;20039;-86
2022/04/21 07:27:07;;;;;;;5.15;2.72;;;11.20;96.70;;;;;;5066974;28;20540;-90
2022/04/21 07:29:36;;;;;;;4.10;2.50;;;11.20;96.50;;;;;;5083813;28;20036;-85
2022/04/21 07:32:02;;;;;;;4.57;2.67;;;11.30;96.30;;;;;;5069439;28;20470;-87
2022/04/21 07:34:27;;;;;;;5.63;2.60;;;11.30;96.10;;;;;;5083899;28;20041;-90
2022/04/21 07:36:53;;;;;;;5.45;2.70;;;11.40;95.90;;;;;;5076261;28;20094;-87
2022/04/21 07:39:19;;;;;;;3.40;2.05;;;11.50;95.50;;;;;;5057039;28;20024;-88
2022/04/21 07:41:46;;;;;;;3.72;2.17;;;11.50;95.60;;;;;;5057485;28;20396;-89
2022/04/21 07:44:12;;;;;;;4.53;2.42;;;11.60;95.20;;;;;;5058200;28;20064;-86
2022/04/21 07:46:37;;;;;;;4.68;2.20;;;11.60;95.00;;;;;;5077703;28;20032;-87
2022/04/21 07:51:48;;;;;;;2.75;1.90;;;11.70;94.90;;;;;;5069968;28;20556;-86
2022/04/21 07:54:14;;;;;;;4.32;2.00;;;11.70;94.30;;;;;;5061932;28;20044;-85
2022/04/21 07:56:39;;;;;;;2.75;1.85;;;11.80;94.40;;;;;;5062595;28;20082;-86
2022/04/21 07:59:05;;;;;;;2.83;1.95;;;11.90;94.10;;;;;;5061526;28;20140;-85
2022/04/21 08:01:31;;;;;;;3.05;1.80;;;12.00;93.90;;;;;;5078978;28;20051;-84
2022/04/21 08:04:02;;;;;;;2.78;1.60;;;12.00;93.70;;;;;;5067288;28;20041;-85
2022/04/21 08:06:30;;;;;;;3.88;2.03;;;12.10;93.70;;;;;;5060241;28;20033;-85
2022/04/21 08:08:56;;;;;;;3.67;1.60;;;12.20;93.60;;;;;;5060791;28;20479;-85
2022/04/21 08:11:22;;;;;;;3.13;1.77;;;12.20;93.50;;;;;;5060079;28;20162;-84
2022/04/21 08:13:47;;;;;;;3.08;1.92;;;12.30;93.50;;;;;;5060921;28;20029;-85
2022/04/21 08:16:13;;;;;;;3.50;2.05;;;12.30;93.30;;;;;;5067179;28;20040;-88
2022/04/21 08:18:39;;;;;;;3.13;1.88;;;12.40;93.10;;;;;;5066304;28;20033;-85
2022/04/21 08:21:05;;;;;;;3.65;1.85;;;12.50;92.80;;;;;;5076846;28;20037;-84
2022/04/21 08:23:38;;;;;;;2.78;1.70;;;12.50;92.80;;;;;;5077346;28;20048;-85
2022/04/21 08:34:16;;;;;;;2.60;1.60;;;12.80;92.30;;;;;;5071324;28;20616;-89
2022/04/21 08:36:41;;;;;;;2.25;1.35;;;12.90;92.30;;;;;;5077535;28;20029;-86
2022/04/21 08:39:07;;;;;;;4.30;1.80;;;12.90;92.30;;;;;;5056151;28;20083;-85
2022/04/21 08:41:37;;;;;;;2.55;1.70;;;13.00;92.10;;;;;;5056604;28;20037;-87
2022/04/21 08:44:03;;;;;;;3.70;1.70;;;13.10;91.60;;;;;;5057766;28;20033;-85
2022/04/21 08:46:32;;;;;;;3.60;1.40;;;13.10;91.50;;;;;;5057502;28;20095;-85
2022/04/21 08:49:01;;;;;;;2.53;1.63;;;13.20;91.60;;;;;;5068143;28;20020;-86
2022/04/21 08:51:28;;;;;;;2.75;1.50;;;13.30;91.60;;;;;;5059477;28;20556;-90
2022/04/21 08:53:55;;;;;;;2.30;1.30;;;13.30;91.60;;;;;;5059625;28;20062;-86
2022/04/21 08:56:22;;;;;;;5.07;1.67;;;13.30;91.50;;;;;;5058353;28;20032;-85
2022/04/21 08:58:48;;;;;;;5.47;1.77;;;13.40;91.50;;;;;;5059105;28;20033;-85
2022/04/21 09:01:16;;;;;;;3.00;1.70;;;13.50;91.30;;;;;;5058507;28;20028;-84
2022/04/21 09:03:41;;;;;;;2.65;1.70;;;13.60;91.10;;;;;;5058360;28;20525;-87
2022/04/21 09:06:09;;;;;;;3.40;1.75;;;13.60;91.50;;;;;;5064061;28;20053;-87
2022/04/21 09:08:35;;;;;;;3.60;1.70;;;13.70;91.20;;;;;;5060426;28;20024;-89
2022/04/21 09:11:15;;;;;;;2.05;1.58;;;13.70;91.10;;;;;;5061244;28;20068;-85
2022/04/21 09:13:44;;;;;;;2.58;1.60;;;13.80;91.10;;;;;;5080722;28;20113;-86
2022/04/21 09:16:12;;;;;;;2.92;1.67;;;13.90;90.90;;;;;;5080607;28;20029;-86
2022/04/21 09:18:44;;;;;;;5.20;1.95;;;13.90;90.70;;;;;;5076325;28;20028;-85
2022/04/21 09:21:15;;;;;;;1.95;1.40;;;14.00;90.60;;;;;;5040632;28;20041;-87
2022/04/21 09:23:44;;;;;;;2.22;1.45;;;14.10;90.70;;;;;;5056671;28;20029;-88
2022/04/21 09:26:16;;;;;;;2.97;1.60;;;14.20;90.40;;;;;;5038702;28;20029;-87
2022/04/21 09:28:42;;;;;;;4.10;1.65;;;14.20;88.70;;;;;;5056218;28;20025;-87
2022/04/21 09:31:10;;;;;;;2.65;1.65;;;14.20;88.90;;;;;;5057647;28;20205;-88
2022/04/21 09:33:40;;;;;;;3.28;1.52;;;14.30;88.20;;;;;;5067855;28;20068;-84
2022/04/21 09:36:07;;;;;;;3.00;1.25;;;14.40;88.70;;;;;;5073205;28;20540;-86
2022/04/21 09:38:34;;;;;;;2.65;1.30;;;15.00;89.10;;;;;;5062337;28;20024;-86
2022/04/21 09:41:06;;;;;;;2.88;1.38;;;16.40;87.60;;;;;;5058103;28;20418;-87
2022/04/21 09:43:33;;;;;;;1.65;1.15;;;17.90;86.00;;;;;;5057631;28;20447;-88
2022/04/21 09:46:17;;;;;;;1.98;1.50;;;19.30;84.30;;;;;;5057592;28;20068;-90
2022/04/21 09:48:44;;;;;;;2.20;1.10;;;20.40;81.50;;;;;;5053657;28;20040;-87
2022/04/21 09:51:28;;;;;;;2.85;1.40;;;21.10;80.10;;;;;;5055221;28;20127;-87
2022/04/21 09:53:59;;;;;;;2.60;1.42;;;21.70;77.60;;;;;;5059959;28;20043;-87
2022/04/21 09:56:42;;;;;;;1.67;0.98;;;22.00;75.90;;;;;;5076576;28;20054;-87
2022/04/21 09:59:12;;;;;;;2.00;1.30;;;22.50;75.90;;;;;;5044031;28;20131;-88
2022/04/21 10:01:44;;;;;;;2.13;0.93;;;22.70;73.60;;;;;;5072031;28;20071;-86
2022/04/21 10:04:11;;;;;;;4.65;1.52;;;23.00;71.80;;;;;;5067296;28;20086;-88
2022/04/21 10:06:41;;;;;;;1.80;1.17;;;23.10;70.30;;;;;;5077693;28;20367;-90
2022/04/21 10:09:08;;;;;;;2.17;1.13;;;23.10;69.80;;;;;;5038334;28;20025;-89
2022/04/21 10:11:37;;;;;;;1.50;1.10;;;23.30;69.90;;;;;;5038010;28;20123;-89
2022/04/21 10:14:05;;;;;;;3.25;1.60;;;23.60;68.80;;;;;;5037985;28;20128;-88
2022/04/21 10:16:31;;;;;;;4.05;1.20;;;23.80;66.80;;;;;;5037638;28;20033;-88
2022/04/21 10:18:58;;;;;;;2.97;1.35;;;23.80;67.00;;;;;;5046448;28;20094;-87
2022/04/21 10:21:42;;;;;;;1.63;1.17;;;24.00;66.60;;;;;;5055351;28;20032;-87
2022/04/21 10:24:09;;;;;;;2.10;1.13;;;24.30;66.20;;;;;;5053775;28;20545;-90
2022/04/21 10:26:40;;;;;;;3.00;1.80;;;24.60;66.90;;;;;;5055126;28;20187;-89
2022/04/21 10:29:14;;;;;;;3.25;1.40;;;24.80;63.80;;;;;;5078074;28;20032;-88
2022/04/21 10:32:03;;;;;;;1.80;1.02;;;24.60;63.80;;;;;;5095591;28;20043;-89
2022/04/21 10:34:45;;;;;;;3.92;1.05;;;24.60;63.10;;;;;;5093371;28;20067;-87
2022/04/21 10:37:12;;;;;;;1.45;1.00;;;24.90;62.90;;;;;;5075298;28;20385;-87
2022/04/21 10:39:40;;;;;;;2.88;0.90;;;25.30;63.00;;;;;;5096648;28;20046;-88
2022/04/21 10:42:19;;;;;;;1.90;1.00;;;25.60;62.50;;;;;;5065302;28;20131;-90
2022/04/21 10:44:52;;;;;;;1.83;1.05;;;25.80;62.20;;;;;;5057319;28;20032;-93
2022/04/21 10:47:37;;;;;;;3.00;1.40;;;26.10;60.30;;;;;;5073922;28;20162;-88
2022/04/21 10:50:11;;;;;;;2.13;1.00;;;26.00;58.50;;;;;;5040936;28;20025;-88
2022/04/21 10:57:48;;;;;;;2.63;1.42;;;25.60;59.40;;;;;;5086731;28;20089;-87
2022/04/21 11:00:28;;;;;;;2.28;1.05;;;25.60;58.70;;;;;;5062803;28;20045;-83
2022/04/21 11:03:08;;;;;;;2.45;1.10;;;25.90;58.50;;;;;;5057157;28;20082;-87
2022/04/21 11:05:39;;;;;;;1.88;1.10;;;26.30;58.20;;;;;;5040394;28;20052;-88
2022/04/21 11:08:13;;;;;;;2.40;1.48;;;26.50;58.10;;;;;;5085696;28;20028;-87
2022/04/21 11:10:38;;;;;;;1.92;1.20;;;26.60;59.00;;;;;;5095091;28;20036;-87
2022/04/21 11:13:09;;;;;;;1.88;1.02;;;26.80;56.60;;;;;;5060011;28;20066;-88
2022/04/21 11:15:47;;;;;;;1.38;0.90;;;26.70;57.10;;;;;;5085361;28;20032;-88
2022/04/21 11:18:29;;;;;;;1.83;1.10;;;26.90;57.60;;;;;;5062560;28;20031;-88
2022/04/21 11:21:26;;;;;;;2.33;0.75;;;27.20;57.10;;;;;;5056126;28;20072;-87
2022/04/21 11:23:52;;;;;;;2.28;1.10;;;27.50;56.80;;;;;;5064701;28;20048;-86
2022/04/21 11:26:25;;;;;;;1.42;1.00;;;27.50;56.10;;;;;;5073576;28;20114;-88
2022/04/21 11:28:51;;;;;;;2.67;1.00;;;27.50;55.80;;;;;;5057378;28;20056;-85
2022/04/21 11:31:20;;;;;;;2.58;1.25;;;26.60;55.30;;;;;;5075893;28;20035;-86
2022/04/21 11:33:46;;;;;;;4.63;1.25;;;25.60;56.10;;;;;;5076311;28;20035;-88
2022/04/21 11:36:14;;;;;;;2.10;1.42;;;24.80;56.90;;;;;;5075796;28;20479;-87
2022/04/21 11:38:44;;;;;;;2.10;1.20;;;24.60;57.60;;;;;;5091960;28;20036;-86
2022/04/21 11:41:13;;;;;;;3.15;1.50;;;25.20;58.00;;;;;;5063684;28;20486;-86
2022/04/21 11:43:50;;;;;;;3.03;1.40;;;25.70;56.60;;;;;;5077527;28;20036;-88
2022/04/21 11:46:19;;;;;;;2.30;1.20;;;26.10;55.70;;;;;;5095079;28;20032;-88
2022/04/21 11:48:57;;;;;;;2.00;1.17;;;26.40;56.00;;;;;;5067243;28;20419;-89
2022/04/21 11:51:26;;;;;;;4.80;1.30;;;26.80;55.50;;;;;;5073651;28;20027;-85
2022/04/21 11:53:52;;;;;;;2.10;1.20;;;26.70;55.50;;;;;;5072500;28;20173;-86
2022/04/21 11:56:18;;;;;;;1.95;1.10;;;26.90;55.70;;;;;;5057645;28;20533;-87
2022/04/21 11:58:45;;;;;;;2.65;1.52;;;26.80;56.10;;;;;;5053449;28;20478;-87
2022/04/21 12:06:48;;;;;;;2.03;1.20;;;26.20;57.00;;;;;;5067921;28;20149;-86
2022/04/21 12:09:18;;;;;;;2.45;1.30;;;26.30;57.20;;;;;;5054219;28;20028;-88
2022/04/21 12:11:55;;;;;;;2.72;1.58;;;26.40;57.40;;;;;;5055794;28;20094;-89
2022/04/21 12:14:22;;;;;;;2.05;1.40;;;26.80;57.30;;;;;;5057952;28;20490;-85
2022/04/21 12:17:01;;;;;;;1.88;1.13;;;27.00;56.10;;;;;;5060837;28;20029;-86
2022/04/21 12:19:41;;;;;;;3.53;1.33;;;27.20;56.40;;;;;;5073406;28;20086;-87
2022/04/21 12:22:09;;;;;;;3.92;1.33;;;27.50;56.00;;;;;;5074233;28;20037;-88
2022/04/21 12:24:39;;;;;;;2.85;1.00;;;27.60;55.40;;;;;;5074731;28;20032;-89
2022/04/21 12:27:14;;;;;;;1.77;1.40;;;27.40;56.40;;;;;;5074536;28;20029;-88
2022/04/21 12:29:47;;;;;;;2.92;1.50;;;26.90;55.70;;;;;;5070564;28;20505;-87
2022/04/21 12:32:17;;;;;;;2.05;1.20;;;26.30;55.30;;;;;;5056477;28;20092;-90
2022/04/21 12:34:43;;;;;;;3.22;1.40;;;25.70;56.40;;;;;;5072241;28;20522;-88
2022/04/21 12:37:09;;;;;;;4.03;1.83;;;25.70;56.60;;;;;;5061309;28;20029;-85
2022/04/21 12:39:37;;;;;;;4.28;1.67;;;26.10;56.30;;;;;;5060250;28;20104;-88
2022/04/21 12:42:06;;;;;;;2.78;1.45;;;26.60;56.50;;;;;;5059406;28;20029;-87
2022/04/21 12:44:33;;;;;;;2.67;1.60;;;26.80;56.00;;;;;;5076941;28;20037;-85
2022/04/21 12:47:15;;;;;;;3.85;1.40;;;26.90;55.70;;;;;;5054464;28;20032;-87
2022/04/21 12:49:53;;;;;;;4.20;1.58;;;27.00;56.50;;;;;;5072789;28;20057;-88
2022/04/21 12:52:41;;;;;;;2.38;1.60;;;27.40;56.10;;;;;;5060382;28;20124;-87
2022/04/21 12:55:13;;;;;;;2.22;1.30;;;27.50;56.60;;;;;;5069842;28;20132;-87
2022/04/21 12:57:39;;;;;;;2.57;1.27;;;27.70;56.30;;;;;;5075413;28;20029;-87
2022/04/21 13:00:10;;;;;;;3.60;1.33;;;27.90;56.00;;;;;;5067782;28;20040;-84
2022/04/21 13:02:38;;;;;;;4.15;1.80;;;28.20;56.10;;;;;;5073991;28;20043;-87
2022/04/21 13:05:07;;;;;;;3.58;1.92;;;28.30;56.20;;;;;;5054414;28;20033;-86
2022/04/21 13:07:32;;;;;;;3.97;1.70;;;28.30;55.70;;;;;;5058106;28;20360;-85
2022/04/21 13:09:58;;;;;;;2.65;1.65;;;28.40;56.30;;;;;;5068153;28;20690;-86
2022/04/21 13:12:24;;;;;;;4.47;1.70;;;28.50;56.60;;;;;;5064813;28;20020;-87
2022/04/21 13:14:50;;;;;;;3.95;2.15;;;28.40;57.30;;;;;;5046733;28;20036;-87
2022/04/21 13:17:17;;;;;;;4.47;1.50;;;28.10;56.00;;;;;;5057746;28;20167;-85
2022/04/21 13:19:42;;;;;;;4.05;1.73;;;27.70;56.90;;;;;;5067388;28;20052;-88
2022/04/21 13:22:08;;;;;;;4.10;2.05;;;27.30;57.40;;;;;;5058492;28;20032;-88
2022/04/21 13:24:37;;;;;;;3.17;1.65;;;26.70;57.90;;;;;;5057865;28;20418;-87
2022/04/21 13:27:02;;;;;;;5.55;2.33;;;25.80;58.00;;;;;;5058148;28;20039;-89
2022/04/21 13:29:29;;;;;;;3.60;1.67;;;25.50;58.40;;;;;;5057890;28;20025;-88
2022/04/21 13:34:39;;;;;;;3.90;1.50;;;26.40;57.20;;;;;;5065422;28;20180;-85
2022/04/21 13:37:05;;;;;;;2.53;1.70;;;26.40;57.30;;;;;;5058516;28;20060;-89
2022/04/21 13:39:34;;;;;;;2.97;1.50;;;26.20;56.80;;;;;;5057352;28;20036;-87
2022/04/21 13:42:01;;;;;;;2.88;1.70;;;26.00;58.20;;;;;;5058352;28;20024;-87
2022/04/21 13:44:27;;;;;;;3.75;1.70;;;25.90;56.70;;;;;;5057909;28;20043;-88